createdAt,value
2018-05-09T00:02:14.982Z,9.20
2018-05-09T00:04:43.263Z,8.83
2018-05-09T00:07:11.546Z,8.57
2018-05-09T00:09:39.747Z,8.43
2018-05-09T00:12:08.021Z,9.70
2018-05-09T00:14:36.227Z,9.27
2018-05-09T00:17:04.512Z,9.97
2018-05-09T00:19:32.786Z,9.67
2018-05-09T00:22:00.984Z,9.40
2018-05-09T00:24:29.259Z,8.83
2018-05-09T00:26:57.446Z,8.37
2018-05-09T00:29:25.663Z,9.37
2018-05-09T00:31:53.938Z,9.60
2018-05-09T00:34:22.218Z,8.43
2018-05-09T00:36:51.195Z,9.17
2018-05-09T00:39:19.423Z,9.47
2018-05-09T00:41:47.791Z,9.40
2018-05-09T00:44:15.898Z,8.90
2018-05-09T00:46:44.164Z,9.30
2018-05-09T00:49:12.343Z,8.87
2018-05-09T00:51:40.567Z,10.70
2018-05-09T00:54:17.730Z,9.40
2018-05-09T00:56:45.944Z,9.30
2018-05-09T00:59:14.215Z,9.80
2018-05-09T01:01:42.392Z,8.90
2018-05-09T01:04:10.594Z,9.17
2018-05-09T01:06:38.879Z,9.00
2018-05-09T01:09:07.086Z,10.03
2018-05-09T01:11:35.369Z,10.83
2018-05-09T01:14:03.667Z,9.37
2018-05-09T01:16:31.936Z,10.00
2018-05-09T01:19:00.223Z,9.73
2018-05-09T01:21:28.514Z,9.57
2018-05-09T01:23:56.808Z,10.20
2018-05-09T01:26:25.107Z,10.13
2018-05-09T01:28:53.367Z,10.33
2018-05-09T01:31:21.568Z,11.03
2018-05-09T01:33:49.855Z,9.70
2018-05-09T01:36:18.146Z,10.13
2018-05-09T01:38:46.319Z,9.90
2018-05-09T01:41:14.531Z,10.00
2018-05-09T01:43:42.804Z,10.13
2018-05-09T01:46:10.999Z,10.37
2018-05-09T01:48:39.286Z,10.80
2018-05-09T01:51:07.586Z,9.97
2018-05-09T01:53:35.855Z,10.83
2018-05-09T01:56:04.163Z,10.23
2018-05-09T01:58:32.338Z,11.43
2018-05-09T02:01:02.863Z,10.27
2018-05-09T02:03:31.083Z,11.27
2018-05-09T02:05:59.518Z,11.13
2018-05-09T02:08:27.730Z,12.23
2018-05-09T02:10:55.951Z,11.87
2018-05-09T02:13:24.215Z,11.67
2018-05-09T02:15:52.499Z,11.60
2018-05-09T02:18:20.709Z,13.27
2018-05-09T02:20:48.975Z,12.80
2018-05-09T02:23:17.167Z,13.20
2018-05-09T02:25:45.464Z,13.90
2018-05-09T02:28:13.694Z,13.70
2018-05-09T02:30:41.940Z,14.20
2018-05-09T02:33:10.231Z,14.60
2018-05-09T02:35:38.493Z,13.90
2018-05-09T02:38:06.705Z,13.70
2018-05-09T02:40:35.004Z,13.30
2018-05-09T02:43:03.267Z,14.00
2018-05-09T02:45:31.471Z,12.00
2018-05-09T02:47:59.662Z,12.60
2018-05-09T02:50:27.932Z,13.53
2018-05-09T02:52:56.231Z,12.30
2018-05-09T02:55:24.510Z,12.20
2018-05-09T02:57:52.794Z,11.83
2018-05-09T03:00:20.986Z,10.97
2018-05-09T03:02:49.192Z,10.70
2018-05-09T03:05:17.472Z,11.80
2018-05-09T03:07:45.747Z,12.20
2018-05-09T03:10:14.047Z,11.63
2018-05-09T03:12:42.326Z,11.87
2018-05-09T03:15:10.608Z,11.60
2018-05-09T03:17:38.806Z,12.60
2018-05-09T03:20:07.087Z,11.00
2018-05-09T03:22:35.375Z,11.70
2018-05-09T03:25:03.703Z,13.07
2018-05-09T03:27:31.962Z,12.80
2018-05-09T03:30:00.243Z,12.80
2018-05-09T03:32:28.543Z,11.70
2018-05-09T03:34:56.820Z,12.33
2018-05-09T03:37:25.136Z,12.83
2018-05-09T03:39:53.414Z,12.17
2018-05-09T03:42:21.679Z,11.17
2018-05-09T03:44:49.871Z,10.87
2018-05-09T03:47:18.083Z,11.77
2018-05-09T03:49:46.355Z,11.60
2018-05-09T03:52:14.639Z,10.80
2018-05-09T03:54:42.841Z,12.37
2018-05-09T03:57:11.115Z,12.20
2018-05-09T03:59:39.419Z,12.30
2018-05-09T04:03:15.535Z,11.17
2018-05-09T04:06:53.897Z,13.03
2018-05-09T04:09:37.009Z,11.67
2018-05-09T04:12:05.111Z,12.30
2018-05-09T04:14:33.351Z,12.30
2018-05-09T04:17:01.631Z,11.67
2018-05-09T04:19:29.923Z,11.43
2018-05-09T04:21:58.223Z,12.63
2018-05-09T04:24:26.481Z,12.30
2018-05-09T04:26:54.696Z,12.47
2018-05-09T04:29:22.976Z,11.93
2018-05-09T04:31:51.271Z,12.97
2018-05-09T04:34:19.538Z,13.63
2018-05-09T04:36:47.832Z,12.83
2018-05-09T04:39:16.130Z,14.03
2018-05-09T04:41:44.436Z,15.13
2018-05-09T04:44:12.719Z,13.90
2018-05-09T04:46:41.024Z,13.97
2018-05-09T04:49:09.451Z,14.27
2018-05-09T04:51:37.611Z,13.93
2018-05-09T04:54:05.847Z,15.67
2018-05-09T04:56:34.240Z,14.10
2018-05-09T04:59:02.454Z,14.97
2018-05-09T05:01:30.728Z,14.77
2018-05-09T05:03:59.015Z,14.07
2018-05-09T05:06:27.332Z,14.60
2018-05-09T05:08:55.592Z,14.00
2018-05-09T05:11:23.868Z,14.17
2018-05-09T05:13:52.067Z,14.43
2018-05-09T05:16:20.363Z,13.43
2018-05-09T05:18:48.644Z,16.63
2018-05-09T05:21:16.947Z,14.50
2018-05-09T05:23:45.227Z,15.10
2018-05-09T05:26:13.503Z,15.27
2018-05-09T05:28:41.805Z,14.47
2018-05-09T05:31:10.079Z,14.23
2018-05-09T05:33:38.259Z,14.00
2018-05-09T05:36:06.499Z,14.60
2018-05-09T05:38:34.774Z,14.27
2018-05-09T05:41:04.237Z,15.20
2018-05-09T05:43:32.542Z,16.07
2018-05-09T05:46:00.738Z,15.13
2018-05-09T05:48:28.940Z,15.47
2018-05-09T05:50:57.211Z,15.90
2018-05-09T05:53:25.411Z,16.80
2018-05-09T05:55:53.682Z,14.10
2018-05-09T05:58:21.866Z,13.53
2018-05-09T06:00:50.105Z,14.47
2018-05-09T06:03:18.235Z,15.20
2018-05-09T06:05:46.463Z,15.23
2018-05-09T06:08:14.671Z,14.27
2018-05-09T06:10:42.855Z,15.83
2018-05-09T06:13:11.107Z,13.50
2018-05-09T06:15:39.425Z,14.57
2018-05-09T06:18:07.620Z,15.07
2018-05-09T06:20:35.855Z,14.50
2018-05-09T06:23:04.051Z,14.90
2018-05-09T06:25:32.251Z,14.07
2018-05-09T06:28:00.463Z,15.23
2018-05-09T06:30:28.719Z,14.60
2018-05-09T06:32:56.994Z,14.90
2018-05-09T06:35:25.179Z,14.70
2018-05-09T06:37:53.376Z,14.17
2018-05-09T06:40:21.560Z,14.70
2018-05-09T06:42:49.762Z,15.03
2018-05-09T06:45:18.119Z,14.90
2018-05-09T06:47:46.312Z,12.40
2018-05-09T06:50:14.623Z,14.73
2018-05-09T06:52:42.903Z,13.60
2018-05-09T06:55:11.099Z,12.10
2018-05-09T06:57:39.371Z,12.70
2018-05-09T07:00:07.571Z,12.90
2018-05-09T07:02:35.788Z,12.87
2018-05-09T07:05:04.001Z,12.10
2018-05-09T07:07:32.200Z,11.40
2018-05-09T07:10:00.426Z,12.97
2018-05-09T07:12:28.624Z,12.00
2018-05-09T07:14:56.815Z,12.63
2018-05-09T07:17:25.064Z,11.97
2018-05-09T07:19:53.267Z,11.70
2018-05-09T07:22:21.462Z,11.37
2018-05-09T07:24:49.644Z,11.27
2018-05-09T07:27:17.850Z,12.80
2018-05-09T07:29:46.109Z,11.77
2018-05-09T07:32:14.316Z,12.30
2018-05-09T07:34:42.607Z,11.43
2018-05-09T07:37:10.765Z,12.37
2018-05-09T07:39:39.051Z,11.27
2018-05-09T07:42:07.338Z,12.27
2018-05-09T07:44:35.571Z,12.90
2018-05-09T07:47:03.823Z,13.93
2018-05-09T07:49:32.014Z,11.97
2018-05-09T07:52:00.219Z,12.80
2018-05-09T07:54:28.419Z,17.13
2018-05-09T07:56:56.642Z,13.63
2018-05-09T07:59:24.838Z,12.80
2018-05-09T08:01:53.035Z,12.67
2018-05-09T08:04:21.327Z,11.83
2018-05-09T08:06:49.611Z,12.80
2018-05-09T08:09:17.910Z,11.73
2018-05-09T08:11:46.208Z,11.63
2018-05-09T08:14:14.382Z,11.20
2018-05-09T08:16:42.636Z,12.13
2018-05-09T08:19:10.856Z,11.37
2018-05-09T08:21:39.112Z,12.57
2018-05-09T08:24:07.327Z,11.50
2018-05-09T08:26:35.519Z,10.80
2018-05-09T08:29:04.048Z,10.27
2018-05-09T08:31:32.407Z,11.27
2018-05-09T08:34:00.661Z,10.43
2018-05-09T08:36:28.827Z,11.70
2018-05-09T08:38:57.063Z,10.97
2018-05-09T08:41:25.283Z,11.43
2018-05-09T08:43:53.521Z,13.00
2018-05-09T08:46:21.669Z,13.40
2018-05-09T08:48:49.854Z,12.90
2018-05-09T08:51:18.069Z,13.20
2018-05-09T08:53:46.316Z,16.87
2018-05-09T08:56:14.494Z,19.00
2018-05-09T08:58:42.999Z,16.60
2018-05-09T09:01:11.184Z,19.50
2018-05-09T09:03:39.409Z,19.27
2018-05-09T09:06:07.626Z,15.77
2018-05-09T09:08:35.823Z,15.27
2018-05-09T09:11:04.031Z,15.80
2018-05-09T09:13:32.228Z,15.40
2018-05-09T09:16:00.440Z,20.63
2018-05-09T09:18:28.663Z,16.67
2018-05-09T09:20:56.878Z,15.17
2018-05-09T09:23:25.064Z,16.40
2018-05-09T09:25:53.320Z,15.97
2018-05-09T09:28:21.636Z,16.60
2018-05-09T09:30:49.836Z,14.63
2018-05-09T09:33:18.039Z,16.20
2018-05-09T09:35:46.235Z,17.47
2018-05-09T09:38:14.443Z,16.70
2018-05-09T09:40:42.632Z,18.20
2018-05-09T09:43:10.844Z,16.97
2018-05-09T09:45:39.026Z,17.17
2018-05-09T09:48:07.223Z,18.17
2018-05-09T09:50:35.649Z,18.00
2018-05-09T09:53:03.778Z,16.83
2018-05-09T09:55:31.996Z,16.70
2018-05-09T09:58:00.224Z,17.50
2018-05-09T10:00:28.435Z,16.20
2018-05-09T10:02:56.624Z,15.23
2018-05-09T10:05:24.838Z,14.80
2018-05-09T10:07:53.047Z,17.13
2018-05-09T10:10:21.243Z,18.30
2018-05-09T10:12:49.460Z,16.70
2018-05-09T10:15:18.285Z,17.43
2018-05-09T10:17:46.494Z,14.40
2018-05-09T10:20:14.704Z,15.47
2018-05-09T10:22:42.939Z,15.30
2018-05-09T10:25:11.123Z,14.33
2018-05-09T10:27:39.347Z,11.87
2018-05-09T10:30:07.539Z,11.60
2018-05-09T10:32:35.758Z,12.10
2018-05-09T10:35:03.967Z,11.80
2018-05-09T10:37:32.191Z,13.33
2018-05-09T10:40:00.387Z,11.77
2018-05-09T10:42:28.595Z,11.00
2018-05-09T10:44:56.823Z,10.43
2018-05-09T10:47:25.006Z,10.03
2018-05-09T10:49:53.192Z,10.40
2018-05-09T10:52:21.392Z,10.40
2018-05-09T10:54:49.675Z,10.83
2018-05-09T10:57:18.056Z,10.90
2018-05-09T10:59:46.244Z,10.43
2018-05-09T11:02:14.533Z,24.40
2018-05-09T11:04:42.941Z,11.70
2018-05-09T11:07:11.232Z,12.33
2018-05-09T11:09:39.519Z,10.40
2018-05-09T11:12:07.799Z,10.40
2018-05-09T11:14:36.077Z,18.67
2018-05-09T11:17:04.316Z,12.47
2018-05-09T11:19:32.573Z,10.90
2018-05-09T11:22:00.872Z,11.50
2018-05-09T11:24:29.213Z,11.07
2018-05-09T11:26:57.315Z,13.57
2018-05-09T11:29:25.535Z,11.20
2018-05-09T11:31:53.792Z,11.10
2018-05-09T11:34:22.003Z,14.60
2018-05-09T11:36:50.279Z,12.27
2018-05-09T11:39:18.559Z,11.93
2018-05-09T11:41:46.869Z,11.77
2018-05-09T11:44:15.060Z,11.70
2018-05-09T11:46:43.254Z,12.40
2018-05-09T11:49:11.609Z,11.83
2018-05-09T11:51:39.839Z,14.20
2018-05-09T11:54:08.096Z,12.60
2018-05-09T11:56:36.391Z,12.63
2018-05-09T11:59:04.679Z,12.57
2018-05-09T12:01:32.967Z,14.30
2018-05-09T12:04:01.146Z,13.40
2018-05-09T12:06:29.451Z,13.23
2018-05-09T12:08:57.723Z,13.17
2018-05-09T12:11:25.932Z,13.47
2018-05-09T12:13:54.196Z,13.77
2018-05-09T12:16:22.479Z,13.07
2018-05-09T12:18:50.683Z,12.97
2018-05-09T12:21:19.768Z,13.20
2018-05-09T12:23:47.988Z,12.40
2018-05-09T12:26:16.252Z,14.33
2018-05-09T12:28:44.445Z,13.00
2018-05-09T12:31:12.639Z,13.13
2018-05-09T12:33:40.934Z,13.63
2018-05-09T12:36:09.215Z,13.27
2018-05-09T12:38:37.514Z,13.00
2018-05-09T12:41:05.784Z,12.40
2018-05-09T12:43:34.073Z,12.10
2018-05-09T12:46:02.257Z,13.13
2018-05-09T12:48:30.607Z,12.23
2018-05-09T12:50:58.860Z,13.03
2018-05-09T12:53:27.130Z,13.00
2018-05-09T12:55:55.432Z,12.07
2018-05-09T12:58:23.702Z,11.90
2018-05-09T13:00:52.007Z,11.60
2018-05-09T13:03:20.191Z,11.60
2018-05-09T13:05:48.467Z,12.50
2018-05-09T13:08:16.762Z,13.43
2018-05-09T13:10:45.047Z,12.70
2018-05-09T13:13:13.329Z,13.27
2018-05-09T13:15:41.524Z,13.20
2018-05-09T13:18:09.716Z,12.03
2018-05-09T13:20:38.015Z,12.03
2018-05-09T13:23:06.291Z,12.40
2018-05-09T13:25:34.493Z,13.43
2018-05-09T13:28:02.803Z,12.03
2018-05-09T13:30:30.955Z,12.17
2018-05-09T13:32:59.324Z,12.50
2018-05-09T13:35:27.519Z,12.53
2018-05-09T13:37:55.724Z,12.90
2018-05-09T13:40:23.999Z,11.83
2018-05-09T13:42:52.194Z,12.87
2018-05-09T13:45:20.489Z,12.30
2018-05-09T13:47:48.759Z,11.83
2018-05-09T13:50:17.028Z,11.40
2018-05-09T13:52:45.246Z,11.60
2018-05-09T13:55:13.540Z,12.27
2018-05-09T13:57:41.825Z,11.57
2018-05-09T14:00:10.115Z,11.53
2018-05-09T14:02:38.415Z,11.00
2018-05-09T14:05:06.675Z,10.90
2018-05-09T14:07:34.919Z,11.13
2018-05-09T14:10:03.174Z,13.20
2018-05-09T14:12:31.442Z,15.27
2018-05-09T14:14:59.663Z,12.47
2018-05-09T14:17:27.931Z,11.53
2018-05-09T14:19:56.136Z,16.70
2018-05-09T14:22:24.402Z,11.40
2018-05-09T14:24:52.595Z,17.17
2018-05-09T14:27:20.810Z,11.40
2018-05-09T14:29:49.061Z,11.50
2018-05-09T14:32:17.426Z,14.80
2018-05-09T14:34:45.626Z,11.90
2018-05-09T14:37:13.843Z,12.00
2018-05-09T14:40:45.105Z,11.10
2018-05-09T14:43:13.283Z,11.10
2018-05-09T14:45:41.488Z,12.07
2018-05-09T14:48:09.759Z,11.97
2018-05-09T14:50:37.942Z,11.83
2018-05-09T14:53:06.151Z,12.20
2018-05-09T14:55:34.423Z,13.33
2018-05-09T14:58:02.635Z,12.13
2018-05-09T15:00:30.899Z,12.67
2018-05-09T15:02:59.088Z,12.70
2018-05-09T15:05:27.347Z,12.30
2018-05-09T15:07:55.554Z,12.73
2018-05-09T15:10:23.875Z,13.73
2018-05-09T15:12:52.151Z,12.17
2018-05-09T15:15:20.439Z,12.47
2018-05-09T15:17:48.735Z,11.57
2018-05-09T15:20:17.006Z,11.13
2018-05-09T15:22:45.203Z,11.37
2018-05-09T15:25:13.495Z,10.60
2018-05-09T15:27:41.790Z,11.40
2018-05-09T15:30:10.058Z,11.27
2018-05-09T15:32:38.247Z,12.10
2018-05-09T15:35:06.463Z,11.73
2018-05-09T15:37:34.719Z,11.20
2018-05-09T15:40:02.921Z,11.27
2018-05-09T15:42:31.219Z,11.03
2018-05-09T15:44:59.523Z,11.00
2018-05-09T15:47:28.159Z,12.00
2018-05-09T15:49:56.384Z,11.00
2018-05-09T15:52:24.736Z,11.80
2018-05-09T15:54:53.182Z,10.23
2018-05-09T15:57:21.444Z,10.00
2018-05-09T16:00:20.368Z,10.60
2018-05-09T16:02:48.735Z,12.67
2018-05-09T16:05:16.935Z,10.80
2018-05-09T16:07:45.243Z,10.63
2018-05-09T16:10:13.531Z,9.97
2018-05-09T16:12:41.806Z,9.53
2018-05-09T16:15:10.109Z,9.93
2018-05-09T16:17:38.390Z,10.40
2018-05-09T16:20:06.671Z,11.40
2018-05-09T16:22:34.981Z,10.33
2018-05-09T16:25:03.319Z,11.10
2018-05-09T16:27:31.608Z,10.83
2018-05-09T16:29:59.908Z,10.23
2018-05-09T16:32:28.126Z,11.50
2018-05-09T16:34:56.595Z,10.17
2018-05-09T16:37:24.787Z,10.20
2018-05-09T16:39:53.946Z,9.80
2018-05-09T16:42:22.228Z,9.60
2018-05-09T16:44:50.420Z,9.20
2018-05-09T16:47:18.700Z,9.50
2018-05-09T16:49:46.954Z,9.90
2018-05-09T16:52:15.235Z,9.17
2018-05-09T16:54:43.443Z,8.93
2018-05-09T16:57:11.745Z,9.43
2018-05-09T16:59:39.987Z,9.20
2018-05-09T17:02:08.268Z,14.50
2018-05-09T17:04:36.467Z,9.70
2018-05-09T17:07:04.698Z,9.97
2018-05-09T17:09:32.990Z,8.83
2018-05-09T17:12:01.248Z,9.03
2018-05-09T17:14:29.455Z,8.87
2018-05-09T17:16:57.797Z,16.17
2018-05-09T17:19:26.052Z,9.77
2018-05-09T17:22:57.531Z,9.20
2018-05-09T17:25:25.851Z,9.37
2018-05-09T17:27:54.063Z,7.80
2018-05-09T17:30:22.427Z,9.40
2018-05-09T17:32:50.560Z,9.73
2018-05-09T17:35:18.823Z,8.93
2018-05-09T17:37:47.027Z,9.90
2018-05-09T17:40:15.311Z,9.47
2018-05-09T17:42:43.587Z,9.33
2018-05-09T17:45:11.896Z,9.77
2018-05-09T17:47:40.174Z,9.27
2018-05-09T17:50:08.470Z,8.90
2018-05-09T17:52:36.734Z,8.23
2018-05-09T17:55:04.986Z,11.10
2018-05-09T17:57:33.236Z,10.30
2018-05-09T18:00:01.412Z,11.00
2018-05-09T18:02:29.722Z,11.07
2018-05-09T18:04:58.008Z,9.37
2018-05-09T18:07:26.275Z,9.30
2018-05-09T18:09:54.466Z,9.30
2018-05-09T18:12:22.767Z,9.40
2018-05-09T18:14:51.162Z,9.67
2018-05-09T18:17:19.314Z,9.40
2018-05-09T18:19:47.515Z,10.00
2018-05-09T18:22:15.791Z,12.87
2018-05-09T18:24:44.015Z,11.33
2018-05-09T18:27:12.305Z,9.33
2018-05-09T18:29:40.571Z,8.90
2018-05-09T18:32:08.856Z,9.60
2018-05-09T18:34:37.051Z,9.27
2018-05-09T18:37:05.376Z,9.03
2018-05-09T18:39:33.660Z,9.10
2018-05-09T18:42:01.899Z,9.13
2018-05-09T18:44:30.102Z,8.90
2018-05-09T18:46:58.415Z,9.00
2018-05-09T18:49:26.677Z,9.47
2018-05-09T18:51:54.879Z,9.17
2018-05-09T18:54:23.399Z,9.40
2018-05-09T18:56:51.630Z,9.53
2018-05-09T18:59:19.942Z,8.67
2018-05-09T19:01:48.158Z,9.27
2018-05-09T19:04:16.497Z,10.50
2018-05-09T19:06:44.723Z,10.93
2018-05-09T19:09:13.012Z,11.33
2018-05-09T19:11:41.329Z,11.30
2018-05-09T19:14:09.595Z,12.40
2018-05-09T19:16:37.931Z,12.60
2018-05-09T19:19:06.160Z,11.43
2018-05-09T19:21:34.479Z,12.37
2018-05-09T19:24:02.740Z,10.67
2018-05-09T19:26:31.024Z,12.30
2018-05-09T19:28:59.331Z,12.70
2018-05-09T19:31:27.588Z,11.80
2018-05-09T19:33:55.906Z,11.83
2018-05-09T19:36:24.177Z,12.90
2018-05-09T19:38:52.476Z,12.40
2018-05-09T19:41:20.787Z,12.07
2018-05-09T19:43:49.075Z,13.30
2018-05-09T19:46:17.476Z,12.17
2018-05-09T19:48:45.744Z,11.73
2018-05-09T19:51:14.067Z,13.13
2018-05-09T19:53:42.332Z,12.07
2018-05-09T19:56:10.592Z,12.63
2018-05-09T19:58:39.032Z,12.63
2018-05-09T20:01:07.300Z,12.00
2018-05-09T20:03:37.857Z,11.47
2018-05-09T20:06:06.375Z,12.17
2018-05-09T20:08:34.978Z,12.07
2018-05-09T20:11:03.277Z,11.93
2018-05-09T20:13:31.498Z,13.33
2018-05-09T20:15:59.793Z,11.97
2018-05-09T20:18:28.171Z,12.63
2018-05-09T20:20:56.499Z,11.67
2018-05-09T20:23:24.992Z,13.67
2018-05-09T20:25:53.252Z,12.37
2018-05-09T20:29:24.436Z,12.47
2018-05-09T20:33:02.121Z,12.47
2018-05-09T20:35:30.523Z,12.70
2018-05-09T20:37:58.859Z,13.50
2018-05-09T20:40:27.160Z,15.57
2018-05-09T20:42:55.388Z,13.00
2018-05-09T20:45:23.700Z,13.70
2018-05-09T20:47:52.040Z,13.67
2018-05-09T20:50:20.308Z,12.07
2018-05-09T20:52:48.623Z,10.97
2018-05-09T20:55:25.872Z,10.27
2018-05-09T20:57:54.159Z,9.60
2018-05-09T21:00:22.415Z,11.07
2018-05-09T21:02:50.763Z,10.33
2018-05-09T21:05:18.998Z,9.23
2018-05-09T21:07:56.810Z,9.63
2018-05-09T21:10:25.129Z,11.07
2018-05-09T21:12:53.383Z,9.60
2018-05-09T21:15:21.668Z,9.10
2018-05-09T21:17:49.946Z,11.27
2018-05-09T21:20:18.259Z,10.67
2018-05-09T21:22:46.523Z,12.70
2018-05-09T21:25:14.827Z,12.97
2018-05-09T21:27:43.146Z,12.60
2018-05-09T21:30:11.418Z,12.40
2018-05-09T21:32:40.331Z,12.00
2018-05-09T21:35:08.962Z,11.67
2018-05-09T21:37:37.370Z,11.00
2018-05-09T21:40:05.711Z,12.50
2018-05-09T21:42:34.040Z,12.37
2018-05-09T21:45:02.254Z,13.00
2018-05-09T21:47:30.588Z,13.93
2018-05-09T21:49:58.846Z,13.20
2018-05-09T21:52:27.203Z,13.63
2018-05-09T21:54:55.309Z,13.40
2018-05-09T21:57:23.619Z,14.20
2018-05-09T21:59:52.253Z,14.03
2018-05-09T22:02:20.507Z,13.73
2018-05-09T22:04:48.767Z,14.20
2018-05-09T22:07:16.975Z,15.27
2018-05-09T22:09:45.251Z,14.37
2018-05-09T22:12:13.535Z,14.97
2018-05-09T22:14:41.839Z,15.37
2018-05-09T22:17:10.122Z,14.30
2018-05-09T22:19:38.394Z,14.70
2018-05-09T22:22:06.594Z,14.03
2018-05-09T22:24:34.876Z,15.03
2018-05-09T22:27:03.179Z,16.43
2018-05-09T22:29:31.447Z,15.67
2018-05-09T22:31:59.643Z,15.90
2018-05-09T22:34:27.943Z,13.40
2018-05-09T22:36:56.259Z,14.20
2018-05-09T22:39:24.528Z,14.40
2018-05-09T22:41:52.800Z,15.63
2018-05-09T22:44:21.100Z,14.53
2018-05-09T22:46:49.399Z,15.30
2018-05-09T22:49:17.658Z,14.20
2018-05-09T22:51:45.963Z,14.93
2018-05-09T22:54:14.258Z,14.97
2018-05-09T22:56:42.585Z,14.60
2018-05-09T22:59:10.815Z,14.77
2018-05-09T23:01:39.180Z,15.20
2018-05-09T23:04:07.403Z,14.37
2018-05-09T23:06:35.727Z,14.73
2018-05-09T23:09:04.107Z,14.50
2018-05-09T23:11:32.363Z,14.63
2018-05-09T23:14:00.662Z,14.67
2018-05-09T23:16:28.951Z,13.10
2018-05-09T23:18:57.227Z,15.40
2018-05-09T23:21:25.541Z,14.23
2018-05-09T23:23:53.828Z,14.43
2018-05-09T23:26:22.091Z,14.90
2018-05-09T23:28:50.314Z,15.10
2018-05-09T23:31:18.571Z,16.50
2018-05-09T23:33:46.877Z,15.47
2018-05-09T23:36:15.156Z,14.30
2018-05-09T23:38:43.439Z,14.23
2018-05-09T23:41:11.743Z,14.90
2018-05-09T23:43:40.019Z,14.67
2018-05-09T23:46:08.323Z,15.03
2018-05-09T23:48:36.615Z,14.30
2018-05-09T23:51:04.914Z,14.33
2018-05-09T23:53:33.203Z,15.83
2018-05-09T23:56:01.398Z,14.77
2018-05-09T23:58:29.646Z,14.33
